sensor_id;sensor_type;location;lat;lon;timestamp;pressure;altitude;pressure_sealevel;temperature;humidity
16451;BME280;12243;42.708;23.310;2023-05-03T00:00:21;95332.78;;;13.05;47.11
16451;BME280;12243;42.708;23.310;2023-05-03T00:02:48;95332.34;;;13.00;47.71
16451;BME280;12243;42.708;23.310;2023-05-03T00:05:15;95330.31;;;12.94;48.19
16451;BME280;12243;42.708;23.310;2023-05-03T00:07:43;95325.47;;;12.99;47.99
16451;BME280;12243;42.708;23.310;2023-05-03T00:10:11;95323.25;;;12.84;48.10
16451;BME280;12243;42.708;23.310;2023-05-03T00:12:41;95324.63;;;12.88;48.20
16451;BME280;12243;42.708;23.310;2023-05-03T00:15:10;95317.22;;;12.84;48.07
16451;BME280;12243;42.708;23.310;2023-05-03T00:17:37;95325.44;;;12.79;47.65
16451;BME280;12243;42.708;23.310;2023-05-03T00:20:05;95321.88;;;12.80;47.95
16451;BME280;12243;42.708;23.310;2023-05-03T00:22:32;95339.19;;;12.81;48.47
16451;BME280;12243;42.708;23.310;2023-05-03T00:24:59;95316.38;;;12.83;48.27
16451;BME280;12243;42.708;23.310;2023-05-03T00:27:26;95333.72;;;12.84;47.94
16451;BME280;12243;42.708;23.310;2023-05-03T00:29:53;95340.16;;;12.80;48.08
16451;BME280;12243;42.708;23.310;2023-05-03T00:32:22;95327.94;;;12.81;48.69
16451;BME280;12243;42.708;23.310;2023-05-03T00:34:52;95336.75;;;12.80;48.16
16451;BME280;12243;42.708;23.310;2023-05-03T00:37:19;95342.78;;;12.80;48.26
16451;BME280;12243;42.708;23.310;2023-05-03T00:39:46;95353.75;;;12.74;48.25
16451;BME280;12243;42.708;23.310;2023-05-03T00:42:13;95348.53;;;12.74;48.72
16451;BME280;12243;42.708;23.310;2023-05-03T00:44:40;95345.78;;;12.76;48.67
16451;BME280;12243;42.708;23.310;2023-05-03T00:47:07;95339.56;;;12.67;48.31
16451;BME280;12243;42.708;23.310;2023-05-03T00:49:36;95346.63;;;12.76;48.24
16451;BME280;12243;42.708;23.310;2023-05-03T00:52:03;95348.00;;;12.80;48.61
16451;BME280;12243;42.708;23.310;2023-05-03T00:54:31;95349.34;;;12.75;49.08
16451;BME280;12243;42.708;23.310;2023-05-03T00:57:00;95344.28;;;12.73;49.56
16451;BME280;12243;42.708;23.310;2023-05-03T00:59:27;95348.28;;;12.77;49.69
16451;BME280;12243;42.708;23.310;2023-05-03T01:01:54;95336.84;;;12.78;49.54
16451;BME280;12243;42.708;23.310;2023-05-03T01:04:22;95347.44;;;12.77;48.69
16451;BME280;12243;42.708;23.310;2023-05-03T01:07:00;95338.38;;;12.81;49.40
16451;BME280;12243;42.708;23.310;2023-05-03T01:09:32;95336.69;;;12.70;49.17
16451;BME280;12243;42.708;23.310;2023-05-03T01:12:11;95335.72;;;12.71;49.16
16451;BME280;12243;42.708;23.310;2023-05-03T01:14:47;95314.16;;;12.69;49.53
16451;BME280;12243;42.708;23.310;2023-05-03T01:17:25;95325.66;;;12.57;49.58
16451;BME280;12243;42.708;23.310;2023-05-03T01:19:56;95321.47;;;12.45;49.57
16451;BME280;12243;42.708;23.310;2023-05-03T01:22:32;95320.34;;;12.37;49.59
16451;BME280;12243;42.708;23.310;2023-05-03T01:25:07;95307.28;;;12.37;49.89
16451;BME280;12243;42.708;23.310;2023-05-03T01:27:35;95314.00;;;12.30;49.67
16451;BME280;12243;42.708;23.310;2023-05-03T01:30:03;95300.25;;;12.28;50.45
16451;BME280;12243;42.708;23.310;2023-05-03T01:32:38;95300.63;;;12.24;50.37
16451;BME280;12243;42.708;23.310;2023-05-03T01:35:14;95297.75;;;12.17;50.57
16451;BME280;12243;42.708;23.310;2023-05-03T01:37:45;95301.69;;;12.11;51.13
16451;BME280;12243;42.708;23.310;2023-05-03T01:40:16;95307.88;;;12.10;50.57
16451;BME280;12243;42.708;23.310;2023-05-03T01:42:45;95299.03;;;12.02;50.80
16451;BME280;12243;42.708;23.310;2023-05-03T01:45:13;95291.03;;;11.94;51.86
16451;BME280;12243;42.708;23.310;2023-05-03T01:47:41;95279.53;;;12.06;51.17
16451;BME280;12243;42.708;23.310;2023-05-03T01:50:08;95282.81;;;11.98;51.25
16451;BME280;12243;42.708;23.310;2023-05-03T01:52:36;95287.19;;;11.98;51.31
16451;BME280;12243;42.708;23.310;2023-05-03T01:55:04;95284.16;;;11.93;51.72
16451;BME280;12243;42.708;23.310;2023-05-03T01:57:32;95290.22;;;11.93;51.43
16451;BME280;12243;42.708;23.310;2023-05-03T01:59:59;95284.78;;;11.85;52.09
16451;BME280;12243;42.708;23.310;2023-05-03T02:02:26;95285.59;;;11.85;51.47
16451;BME280;12243;42.708;23.310;2023-05-03T02:04:53;95276.38;;;11.81;52.02
16451;BME280;12243;42.708;23.310;2023-05-03T02:07:20;95280.19;;;11.77;51.88
16451;BME280;12243;42.708;23.310;2023-05-03T02:09:47;95271.75;;;11.85;51.76
16451;BME280;12243;42.708;23.310;2023-05-03T02:12:15;95284.19;;;11.81;52.54
16451;BME280;12243;42.708;23.310;2023-05-03T02:14:44;95282.81;;;11.77;52.54
16451;BME280;12243;42.708;23.310;2023-05-03T02:17:11;95273.31;;;11.76;52.32
16451;BME280;12243;42.708;23.310;2023-05-03T02:19:38;95279.75;;;11.72;52.96
16451;BME280;12243;42.708;23.310;2023-05-03T02:22:05;95281.84;;;11.78;53.59
16451;BME280;12243;42.708;23.310;2023-05-03T02:24:33;95275.88;;;11.87;53.06
16451;BME280;12243;42.708;23.310;2023-05-03T02:27:04;95281.16;;;11.76;53.51
16451;BME280;12243;42.708;23.310;2023-05-03T02:29:31;95278.16;;;11.81;52.41
16451;BME280;12243;42.708;23.310;2023-05-03T02:32:01;95276.63;;;11.78;53.52
16451;BME280;12243;42.708;23.310;2023-05-03T02:34:30;95280.19;;;11.77;53.27
16451;BME280;12243;42.708;23.310;2023-05-03T02:36:58;95269.63;;;11.79;53.09
16451;BME280;12243;42.708;23.310;2023-05-03T02:39:25;95266.19;;;11.78;53.05
16451;BME280;12243;42.708;23.310;2023-05-03T02:41:52;95279.94;;;11.80;53.28
16451;BME280;12243;42.708;23.310;2023-05-03T02:44:19;95297.31;;;11.70;53.23
16451;BME280;12243;42.708;23.310;2023-05-03T02:46:46;95282.31;;;11.62;53.61
16451;BME280;12243;42.708;23.310;2023-05-03T02:49:15;95291.66;;;11.65;54.05
16451;BME280;12243;42.708;23.310;2023-05-03T02:51:43;95293.06;;;11.69;53.46
16451;BME280;12243;42.708;23.310;2023-05-03T02:54:10;95293.31;;;11.66;53.41
16451;BME280;12243;42.708;23.310;2023-05-03T02:56:38;95284.53;;;11.67;53.82
16451;BME280;12243;42.708;23.310;2023-05-03T02:59:04;95276.59;;;11.68;53.51
16451;BME280;12243;42.708;23.310;2023-05-03T03:01:32;95281.91;;;11.67;52.69
16451;BME280;12243;42.708;23.310;2023-05-03T03:03:59;95286.69;;;11.62;53.31
16451;BME280;12243;42.708;23.310;2023-05-03T03:06:27;95286.81;;;11.60;53.97
16451;BME280;12243;42.708;23.310;2023-05-03T03:08:56;95299.59;;;11.63;54.07
16451;BME280;12243;42.708;23.310;2023-05-03T03:11:23;95298.84;;;11.73;53.96
16451;BME280;12243;42.708;23.310;2023-05-03T03:13:50;95291.13;;;11.71;54.11
16451;BME280;12243;42.708;23.310;2023-05-03T03:16:19;95299.66;;;11.73;54.43
16451;BME280;12243;42.708;23.310;2023-05-03T03:18:46;95302.78;;;11.67;54.45
16451;BME280;12243;42.708;23.310;2023-05-03T03:21:14;95298.78;;;11.63;54.50
16451;BME280;12243;42.708;23.310;2023-05-03T03:23:42;95302.41;;;11.72;54.88
16451;BME280;12243;42.708;23.310;2023-05-03T03:26:09;95296.03;;;11.64;54.43
16451;BME280;12243;42.708;23.310;2023-05-03T03:28:37;95303.03;;;11.64;55.19
16451;BME280;12243;42.708;23.310;2023-05-03T03:31:08;95301.47;;;11.52;55.87
16451;BME280;12243;42.708;23.310;2023-05-03T03:33:36;95305.06;;;11.60;54.84
16451;BME280;12243;42.708;23.310;2023-05-03T03:36:09;95310.59;;;11.46;56.03
16451;BME280;12243;42.708;23.310;2023-05-03T03:38:41;95328.94;;;11.56;55.38
16451;BME280;12243;42.708;23.310;2023-05-03T03:41:10;95324.88;;;11.63;55.07
16451;BME280;12243;42.708;23.310;2023-05-03T03:43:37;95328.44;;;11.62;56.19
16451;BME280;12243;42.708;23.310;2023-05-03T03:46:09;95335.06;;;11.66;55.49
16451;BME280;12243;42.708;23.310;2023-05-03T03:48:37;95327.09;;;11.67;55.08
16451;BME280;12243;42.708;23.310;2023-05-03T03:51:04;95331.13;;;11.51;56.28
16451;BME280;12243;42.708;23.310;2023-05-03T03:53:38;95326.50;;;11.64;55.45
16451;BME280;12243;42.708;23.310;2023-05-03T03:56:07;95336.44;;;11.70;56.07
16451;BME280;12243;42.708;23.310;2023-05-03T03:58:34;95333.34;;;11.76;56.11
16451;BME280;12243;42.708;23.310;2023-05-03T04:01:03;95342.81;;;11.77;56.07
16451;BME280;12243;42.708;23.310;2023-05-03T04:03:31;95339.53;;;11.75;56.57
16451;BME280;12243;42.708;23.310;2023-05-03T04:05:58;95336.63;;;11.78;55.50
16451;BME280;12243;42.708;23.310;2023-05-03T04:08:26;95341.66;;;11.70;55.25
16451;BME280;12243;42.708;23.310;2023-05-03T04:10:53;95348.81;;;11.68;55.59
16451;BME280;12243;42.708;23.310;2023-05-03T04:13:22;95366.38;;;11.66;56.42
16451;BME280;12243;42.708;23.310;2023-05-03T04:15:53;95356.00;;;11.76;54.17
16451;BME280;12243;42.708;23.310;2023-05-03T04:18:21;95354.03;;;11.68;54.87
16451;BME280;12243;42.708;23.310;2023-05-03T04:20:49;95356.25;;;11.73;55.27
16451;BME280;12243;42.708;23.310;2023-05-03T04:23:16;95369.41;;;11.71;55.49
16451;BME280;12243;42.708;23.310;2023-05-03T04:25:43;95365.97;;;11.71;55.48
16451;BME280;12243;42.708;23.310;2023-05-03T04:28:15;95365.88;;;11.72;54.77
16451;BME280;12243;42.708;23.310;2023-05-03T04:30:47;95379.97;;;11.69;55.97
16451;BME280;12243;42.708;23.310;2023-05-03T04:33:19;95381.28;;;11.75;55.58
16451;BME280;12243;42.708;23.310;2023-05-03T04:35:48;95387.41;;;11.74;55.16
16451;BME280;12243;42.708;23.310;2023-05-03T04:38:16;95383.03;;;11.75;55.96
16451;BME280;12243;42.708;23.310;2023-05-03T04:40:44;95389.53;;;11.80;58.33
16451;BME280;12243;42.708;23.310;2023-05-03T04:43:12;95400.47;;;11.74;59.26
16451;BME280;12243;42.708;23.310;2023-05-03T04:45:43;95402.88;;;11.66;59.05
16451;BME280;12243;42.708;23.310;2023-05-03T04:48:16;95401.25;;;11.54;59.75
16451;BME280;12243;42.708;23.310;2023-05-03T04:50:43;95405.66;;;11.53;61.48
16451;BME280;12243;42.708;23.310;2023-05-03T04:53:12;95407.44;;;11.53;62.39
16451;BME280;12243;42.708;23.310;2023-05-03T04:55:45;95419.22;;;11.47;61.71
16451;BME280;12243;42.708;23.310;2023-05-03T04:58:13;95421.94;;;11.45;62.39
16451;BME280;12243;42.708;23.310;2023-05-03T05:00:41;95424.75;;;11.54;62.31
16451;BME280;12243;42.708;23.310;2023-05-03T05:03:15;95422.84;;;11.56;61.50
16451;BME280;12243;42.708;23.310;2023-05-03T05:05:43;95426.91;;;11.49;61.28
16451;BME280;12243;42.708;23.310;2023-05-03T05:08:11;95432.84;;;11.39;61.33
16451;BME280;12243;42.708;23.310;2023-05-03T05:10:47;95431.19;;;11.38;61.51
16451;BME280;12243;42.708;23.310;2023-05-03T05:13:18;95441.63;;;11.38;62.26
16451;BME280;12243;42.708;23.310;2023-05-03T05:15:45;95445.69;;;11.31;63.00
16451;BME280;12243;42.708;23.310;2023-05-03T05:18:12;95442.25;;;11.31;64.53
16451;BME280;12243;42.708;23.310;2023-05-03T05:20:41;95446.84;;;11.38;66.16
16451;BME280;12243;42.708;23.310;2023-05-03T05:23:09;95443.78;;;11.22;67.75
16451;BME280;12243;42.708;23.310;2023-05-03T05:25:40;95436.09;;;11.20;68.83
16451;BME280;12243;42.708;23.310;2023-05-03T05:28:08;95436.69;;;11.24;67.81
16451;BME280;12243;42.708;23.310;2023-05-03T05:30:35;95445.81;;;11.18;68.07
16451;BME280;12243;42.708;23.310;2023-05-03T05:33:03;95436.09;;;11.20;68.27
16451;BME280;12243;42.708;23.310;2023-05-03T05:35:30;95436.31;;;11.29;68.10
16451;BME280;12243;42.708;23.310;2023-05-03T05:37:59;95442.59;;;11.26;66.75
16451;BME280;12243;42.708;23.310;2023-05-03T05:40:28;95439.06;;;11.27;66.75
16451;BME280;12243;42.708;23.310;2023-05-03T05:42:56;95442.09;;;11.32;66.52
16451;BME280;12243;42.708;23.310;2023-05-03T05:45:25;95442.56;;;11.49;65.38
16451;BME280;12243;42.708;23.310;2023-05-03T05:47:53;95441.25;;;11.54;64.60
16451;BME280;12243;42.708;23.310;2023-05-03T05:50:20;95435.84;;;11.67;63.68
16451;BME280;12243;42.708;23.310;2023-05-03T05:52:54;95434.63;;;11.82;63.00
16451;BME280;12243;42.708;23.310;2023-05-03T05:55:24;95441.53;;;12.04;62.80
16451;BME280;12243;42.708;23.310;2023-05-03T05:57:53;95435.16;;;12.18;61.50
16451;BME280;12243;42.708;23.310;2023-05-03T06:00:24;95441.38;;;12.06;62.34
16451;BME280;12243;42.708;23.310;2023-05-03T06:02:51;95449.47;;;12.03;62.50
16451;BME280;12243;42.708;23.310;2023-05-03T06:05:20;95442.59;;;12.02;62.52
16451;BME280;12243;42.708;23.310;2023-05-03T06:07:48;95448.78;;;12.01;62.39
16451;BME280;12243;42.708;23.310;2023-05-03T06:10:17;95445.59;;;11.97;64.29
16451;BME280;12243;42.708;23.310;2023-05-03T06:12:50;95434.97;;;11.89;65.03
16451;BME280;12243;42.708;23.310;2023-05-03T06:15:21;95447.63;;;11.94;65.55
16451;BME280;12243;42.708;23.310;2023-05-03T06:17:48;95443.38;;;11.93;66.85
16451;BME280;12243;42.708;23.310;2023-05-03T06:20:16;95438.16;;;11.93;65.76
16451;BME280;12243;42.708;23.310;2023-05-03T06:22:43;95440.63;;;12.15;65.34
16451;BME280;12243;42.708;23.310;2023-05-03T06:25:11;95437.06;;;12.16;65.42
16451;BME280;12243;42.708;23.310;2023-05-03T06:27:42;95433.81;;;12.24;64.68
16451;BME280;12243;42.708;23.310;2023-05-03T06:30:12;95442.03;;;12.19;65.85
16451;BME280;12243;42.708;23.310;2023-05-03T06:32:41;95429.75;;;12.31;67.15
16451;BME280;12243;42.708;23.310;2023-05-03T06:35:08;95425.78;;;12.36;64.40
16451;BME280;12243;42.708;23.310;2023-05-03T06:37:37;95424.00;;;12.37;65.48
16451;BME280;12243;42.708;23.310;2023-05-03T06:40:07;95427.38;;;12.49;66.09
16451;BME280;12243;42.708;23.310;2023-05-03T06:42:35;95414.22;;;12.60;66.17
16451;BME280;12243;42.708;23.310;2023-05-03T06:45:18;95410.97;;;12.68;64.27
16451;BME280;12243;42.708;23.310;2023-05-03T06:47:45;95413.41;;;12.59;64.31
16451;BME280;12243;42.708;23.310;2023-05-03T06:50:14;95414.22;;;12.60;63.18
16451;BME280;12243;42.708;23.310;2023-05-03T06:52:41;95400.53;;;12.47;62.66
16451;BME280;12243;42.708;23.310;2023-05-03T06:55:08;95402.84;;;12.40;62.56
16451;BME280;12243;42.708;23.310;2023-05-03T06:57:35;95410.03;;;12.48;62.51
16451;BME280;12243;42.708;23.310;2023-05-03T07:00:03;95393.59;;;12.57;62.54
16451;BME280;12243;42.708;23.310;2023-05-03T07:02:33;95391.94;;;12.56;61.06
16451;BME280;12243;42.708;23.310;2023-05-03T07:05:00;95397.50;;;12.72;61.91
16451;BME280;12243;42.708;23.310;2023-05-03T07:07:27;95402.19;;;12.78;60.48
16451;BME280;12243;42.708;23.310;2023-05-03T07:09:54;95382.94;;;12.79;60.60
16451;BME280;12243;42.708;23.310;2023-05-03T07:12:20;95376.72;;;12.71;61.37
16451;BME280;12243;42.708;23.310;2023-05-03T07:14:52;95388.72;;;12.73;60.49
16451;BME280;12243;42.708;23.310;2023-05-03T07:17:18;95394.50;;;12.77;60.65
16451;BME280;12243;42.708;23.310;2023-05-03T07:19:48;95403.19;;;12.87;60.35
16451;BME280;12243;42.708;23.310;2023-05-03T07:22:15;95397.31;;;12.95;60.75
16451;BME280;12243;42.708;23.310;2023-05-03T07:24:43;95388.00;;;13.11;60.60
16451;BME280;12243;42.708;23.310;2023-05-03T07:27:10;95384.69;;;13.19;60.65
16451;BME280;12243;42.708;23.310;2023-05-03T07:29:36;95388.00;;;13.21;60.38
16451;BME280;12243;42.708;23.310;2023-05-03T07:32:04;95388.81;;;13.12;60.82
16451;BME280;12243;42.708;23.310;2023-05-03T07:34:31;95404.31;;;12.94;61.26
16451;BME280;12243;42.708;23.310;2023-05-03T07:36:59;95401.41;;;12.87;61.51
16451;BME280;12243;42.708;23.310;2023-05-03T07:39:26;95404.28;;;12.84;62.26
16451;BME280;12243;42.708;23.310;2023-05-03T07:41:53;95390.69;;;12.91;62.61
16451;BME280;12243;42.708;23.310;2023-05-03T07:44:20;95395.81;;;13.02;62.73
16451;BME280;12243;42.708;23.310;2023-05-03T07:46:47;95393.47;;;12.99;61.54
16451;BME280;12243;42.708;23.310;2023-05-03T07:49:14;95383.41;;;13.04;61.84
16451;BME280;12243;42.708;23.310;2023-05-03T07:51:40;95383.53;;;12.93;62.59
16451;BME280;12243;42.708;23.310;2023-05-03T07:54:09;95390.44;;;13.03;62.70
16451;BME280;12243;42.708;23.310;2023-05-03T07:56:36;95397.63;;;13.11;62.51
16451;BME280;12243;42.708;23.310;2023-05-03T07:59:02;95393.59;;;12.97;62.36
16451;BME280;12243;42.708;23.310;2023-05-03T08:01:29;95402.41;;;13.06;62.46
16451;BME280;12243;42.708;23.310;2023-05-03T08:03:56;95393.78;;;13.15;62.66
16451;BME280;12243;42.708;23.310;2023-05-03T08:06:23;95405.69;;;13.29;62.41
16451;BME280;12243;42.708;23.310;2023-05-03T08:08:57;95408.19;;;13.50;61.64
16451;BME280;12243;42.708;23.310;2023-05-03T08:11:26;95418.09;;;13.46;61.87
16451;BME280;12243;42.708;23.310;2023-05-03T08:13:53;95419.19;;;13.63;62.00
16451;BME280;12243;42.708;23.310;2023-05-03T08:16:20;95414.53;;;13.86;60.98
16451;BME280;12243;42.708;23.310;2023-05-03T08:18:47;95416.75;;;13.81;61.37
16451;BME280;12243;42.708;23.310;2023-05-03T08:21:14;95419.22;;;13.82;61.92
16451;BME280;12243;42.708;23.310;2023-05-03T08:23:42;95409.41;;;14.04;61.33
16451;BME280;12243;42.708;23.310;2023-05-03T08:26:09;95411.56;;;14.38;60.86
16451;BME280;12243;42.708;23.310;2023-05-03T08:28:39;95421.34;;;14.55;60.24
16451;BME280;12243;42.708;23.310;2023-05-03T08:31:06;95417.41;;;14.79;59.37
16451;BME280;12243;42.708;23.310;2023-05-03T08:33:33;95418.50;;;15.13;58.17
16451;BME280;12243;42.708;23.310;2023-05-03T08:36:00;95422.91;;;15.58;57.44
16451;BME280;12243;42.708;23.310;2023-05-03T08:38:27;95417.78;;;16.02;55.48
16451;BME280;12243;42.708;23.310;2023-05-03T08:40:57;95413.69;;;16.26;54.54
16451;BME280;12243;42.708;23.310;2023-05-03T08:43:27;95404.81;;;16.27;53.45
16451;BME280;12243;42.708;23.310;2023-05-03T08:45:55;95397.50;;;16.64;53.58
16451;BME280;12243;42.708;23.310;2023-05-03T08:48:22;95396.72;;;16.98;52.62
16451;BME280;12243;42.708;23.310;2023-05-03T08:50:50;95388.97;;;16.97;52.07
16451;BME280;12243;42.708;23.310;2023-05-03T08:53:18;95404.00;;;17.12;52.21
16451;BME280;12243;42.708;23.310;2023-05-03T08:55:45;95409.72;;;17.08;52.19
16451;BME280;12243;42.708;23.310;2023-05-03T08:58:12;95397.06;;;17.11;52.97
16451;BME280;12243;42.708;23.310;2023-05-03T09:00:39;95410.44;;;17.18;51.58
16451;BME280;12243;42.708;23.310;2023-05-03T09:03:10;95416.19;;;16.79;51.87
16451;BME280;12243;42.708;23.310;2023-05-03T09:05:37;95416.59;;;16.93;51.61
16451;BME280;12243;42.708;23.310;2023-05-03T09:08:06;95412.59;;;17.23;52.19
16451;BME280;12243;42.708;23.310;2023-05-03T09:10:36;95410.38;;;17.44;51.74
16451;BME280;12243;42.708;23.310;2023-05-03T09:13:04;95419.72;;;17.38;50.65
16451;BME280;12243;42.708;23.310;2023-05-03T09:15:32;95415.25;;;17.23;51.66
16451;BME280;12243;42.708;23.310;2023-05-03T09:18:11;95398.31;;;17.33;51.28
16451;BME280;12243;42.708;23.310;2023-05-03T09:20:39;95392.19;;;17.17;51.98
16451;BME280;12243;42.708;23.310;2023-05-03T09:23:07;95393.56;;;17.45;52.14
16451;BME280;12243;42.708;23.310;2023-05-03T09:25:41;95386.91;;;18.08;50.60
16451;BME280;12243;42.708;23.310;2023-05-03T09:28:08;95383.28;;;18.42;49.62
16451;BME280;12243;42.708;23.310;2023-05-03T09:30:35;95383.06;;;18.76;48.71
16451;BME280;12243;42.708;23.310;2023-05-03T09:33:02;95374.78;;;18.87;48.05
16451;BME280;12243;42.708;23.310;2023-05-03T09:35:31;95373.41;;;18.99;47.93
16451;BME280;12243;42.708;23.310;2023-05-03T09:37:58;95374.59;;;18.97;47.44
16451;BME280;12243;42.708;23.310;2023-05-03T09:40:26;95355.00;;;18.83;48.65
16451;BME280;12243;42.708;23.310;2023-05-03T09:43:07;95357.78;;;19.21;48.52
16451;BME280;12243;42.708;23.310;2023-05-03T09:45:34;95345.47;;;19.90;46.35
16451;BME280;12243;42.708;23.310;2023-05-03T09:48:02;95351.59;;;20.52;45.15
16451;BME280;12243;42.708;23.310;2023-05-03T09:50:35;95346.94;;;20.54;43.49
16451;BME280;12243;42.708;23.310;2023-05-03T09:53:03;95344.06;;;20.40;44.15
16451;BME280;12243;42.708;23.310;2023-05-03T09:55:31;95347.66;;;20.77;43.31
16451;BME280;12243;42.708;23.310;2023-05-03T09:57:59;95345.72;;;21.01;43.30
16451;BME280;12243;42.708;23.310;2023-05-03T10:00:28;95340.06;;;21.04;43.47
16451;BME280;12243;42.708;23.310;2023-05-03T10:02:56;95348.56;;;20.99;42.84
16451;BME280;12243;42.708;23.310;2023-05-03T10:05:30;95332.38;;;21.09;42.74
16451;BME280;12243;42.708;23.310;2023-05-03T10:08:00;95334.63;;;21.42;41.69
16451;BME280;12243;42.708;23.310;2023-05-03T10:10:31;95336.81;;;20.72;43.01
16451;BME280;12243;42.708;23.310;2023-05-03T10:13:01;95340.13;;;19.52;45.68
16451;BME280;12243;42.708;23.310;2023-05-03T10:15:29;95341.13;;;19.20;47.59
16451;BME280;12243;42.708;23.310;2023-05-03T10:18:00;95341.22;;;19.35;47.95
16451;BME280;12243;42.708;23.310;2023-05-03T10:20:34;95333.31;;;19.35;46.96
16451;BME280;12243;42.708;23.310;2023-05-03T10:23:10;95333.19;;;19.28;47.43
16451;BME280;12243;42.708;23.310;2023-05-03T10:25:38;95322.44;;;19.84;47.19
16451;BME280;12243;42.708;23.310;2023-05-03T10:28:06;95310.88;;;20.53;44.86
16451;BME280;12243;42.708;23.310;2023-05-03T10:30:34;95299.38;;;20.75;43.57
16451;BME280;12243;42.708;23.310;2023-05-03T10:33:29;95286.84;;;20.84;43.47
16451;BME280;12243;42.708;23.310;2023-05-03T10:35:57;95291.25;;;20.62;44.12
16451;BME280;12243;42.708;23.310;2023-05-03T10:38:27;95293.38;;;20.52;45.18
16451;BME280;12243;42.708;23.310;2023-05-03T10:40:56;95288.88;;;20.37;45.55
16451;BME280;12243;42.708;23.310;2023-05-03T10:43:43;95288.22;;;20.35;45.34
16451;BME280;12243;42.708;23.310;2023-05-03T10:46:32;95291.59;;;20.44;45.55
16451;BME280;12243;42.708;23.310;2023-05-03T10:49:16;95284.06;;;20.56;45.59
16451;BME280;12243;42.708;23.310;2023-05-03T10:51:44;95290.63;;;20.60;45.55
16451;BME280;12243;42.708;23.310;2023-05-03T10:54:12;95282.00;;;20.28;45.89
16451;BME280;12243;42.708;23.310;2023-05-03T10:56:53;95285.47;;;20.14;46.03
16451;BME280;12243;42.708;23.310;2023-05-03T10:59:22;95280.03;;;19.78;46.77
16451;BME280;12243;42.708;23.310;2023-05-03T11:01:50;95287.06;;;19.39;47.44
16451;BME280;12243;42.708;23.310;2023-05-03T11:04:24;95293.72;;;19.27;48.36
16451;BME280;12243;42.708;23.310;2023-05-03T11:06:56;95284.56;;;19.38;48.72
16451;BME280;12243;42.708;23.310;2023-05-03T11:09:31;95288.09;;;19.30;48.48
16451;BME280;12243;42.708;23.310;2023-05-03T11:12:02;95284.50;;;19.23;48.79
16451;BME280;12243;42.708;23.310;2023-05-03T11:14:29;95285.81;;;19.27;48.89
16451;BME280;12243;42.708;23.310;2023-05-03T11:16:56;95276.41;;;19.47;48.33
16451;BME280;12243;42.708;23.310;2023-05-03T11:19:24;95267.66;;;19.70;47.75
16451;BME280;12243;42.708;23.310;2023-05-03T11:21:51;95269.09;;;19.81;47.95
16451;BME280;12243;42.708;23.310;2023-05-03T11:24:18;95272.50;;;19.43;49.27
16451;BME280;12243;42.708;23.310;2023-05-03T11:26:47;95264.22;;;19.46;49.44
16451;BME280;12243;42.708;23.310;2023-05-03T11:29:15;95270.78;;;19.50;49.84
16451;BME280;12243;42.708;23.310;2023-05-03T11:31:43;95256.16;;;19.63;49.75
16451;BME280;12243;42.708;23.310;2023-05-03T11:34:11;95262.84;;;19.50;50.17
16451;BME280;12243;42.708;23.310;2023-05-03T11:36:39;95266.09;;;19.38;50.26
16451;BME280;12243;42.708;23.310;2023-05-03T11:39:06;95259.94;;;19.22;50.66
16451;BME280;12243;42.708;23.310;2023-05-03T11:41:33;95267.66;;;19.24;50.46
16451;BME280;12243;42.708;23.310;2023-05-03T11:44:03;95266.09;;;19.15;50.51
16451;BME280;12243;42.708;23.310;2023-05-03T11:46:32;95261.09;;;18.89;51.42
16451;BME280;12243;42.708;23.310;2023-05-03T11:49:00;95252.28;;;19.04;51.13
16451;BME280;12243;42.708;23.310;2023-05-03T11:51:28;95245.69;;;19.92;49.10
16451;BME280;12243;42.708;23.310;2023-05-03T11:53:56;95235.38;;;20.42;48.60
16451;BME280;12243;42.708;23.310;2023-05-03T11:56:23;95236.41;;;20.26;48.60
16451;BME280;12243;42.708;23.310;2023-05-03T11:58:51;95235.66;;;20.32;48.31
16451;BME280;12243;42.708;23.310;2023-05-03T12:01:22;95238.44;;;20.54;48.59
16451;BME280;12243;42.708;23.310;2023-05-03T12:03:53;95231.28;;;20.39;47.61
16451;BME280;12243;42.708;23.310;2023-05-03T12:06:21;95223.25;;;20.48;47.62
16451;BME280;12243;42.708;23.310;2023-05-03T12:08:48;95226.25;;;20.00;49.41
16451;BME280;12243;42.708;23.310;2023-05-03T12:11:16;95218.72;;;20.12;48.51
16451;BME280;12243;42.708;23.310;2023-05-03T12:13:42;95223.28;;;20.33;47.89
16451;BME280;12243;42.708;23.310;2023-05-03T12:16:10;95240.34;;;20.30;47.74
16451;BME280;12243;42.708;23.310;2023-05-03T12:18:51;95239.38;;;20.08;48.18
16451;BME280;12243;42.708;23.310;2023-05-03T12:21:21;95229.97;;;19.76;49.44
16451;BME280;12243;42.708;23.310;2023-05-03T12:23:49;95218.97;;;19.49;50.00
16451;BME280;12243;42.708;23.310;2023-05-03T12:26:17;95211.59;;;19.22;50.62
16451;BME280;12243;42.708;23.310;2023-05-03T12:28:47;95231.19;;;18.73;52.39
16451;BME280;12243;42.708;23.310;2023-05-03T12:31:14;95221.16;;;18.21;53.08
16451;BME280;12243;42.708;23.310;2023-05-03T12:33:41;95229.28;;;17.95;53.75
16451;BME280;12243;42.708;23.310;2023-05-03T12:36:10;95230.31;;;17.86;54.59
16451;BME280;12243;42.708;23.310;2023-05-03T12:38:37;95232.94;;;17.53;56.02
16451;BME280;12243;42.708;23.310;2023-05-03T12:41:04;95222.09;;;17.48;56.39
16451;BME280;12243;42.708;23.310;2023-05-03T12:43:31;95225.72;;;17.23;57.83
16451;BME280;12243;42.708;23.310;2023-05-03T12:45:58;95219.44;;;16.99;59.83
16451;BME280;12243;42.708;23.310;2023-05-03T12:48:28;95219.94;;;16.95;60.14
16451;BME280;12243;42.708;23.310;2023-05-03T12:50:55;95211.53;;;16.91;59.65
16451;BME280;12243;42.708;23.310;2023-05-03T12:53:25;95226.47;;;16.82;60.62
16451;BME280;12243;42.708;23.310;2023-05-03T12:55:53;95215.13;;;16.82;60.33
16451;BME280;12243;42.708;23.310;2023-05-03T12:58:20;95209.06;;;16.81;60.74